16 mai 2022

Temps Code Temps Temp. Vue Des nuages Vent METAR/SPECI
16:00
V
22 °C 10 km+ 5.000 ft 260°   260° 12 kt METAR LFQQ 161400Z AUTO 26012KT 9999 SCT044 BKN050 22/11 Q1018 NOSIG
15:30
V
23 °C 10 km+ - 250°   250° 11 kt METAR LFQQ 161330Z AUTO 25011KT 210V280 9999 SCT040 23/12 Q1018 NOSIG
15:00
V
23 °C 10 km+ 3.700 ft 260°   260° 13 kt METAR LFQQ 161300Z AUTO 26013KT 220V290 9999 BKN037 23/12 Q1018 NOSIG
14:30
V
21 °C 10 km+ 3.300 ft 250°   250° 10 kt METAR LFQQ 161230Z AUTO 25010KT 210V270 9999 BKN033 21/12 Q1018 NOSIG
14:00
M
21 °C 10 km+ 2.900 ft 230°   230° 13 kt METAR LFQQ 161200Z AUTO 23013KT 9999 BKN029 OVC035 21/13 Q1018 NOSIG
13:30
M
19 °C 10 km+ 2.800 ft 230°   230° 12 kt METAR LFQQ 161130Z AUTO 23012KT 9999 BKN028 OVC034 19/13 Q1018 NOSIG
13:00
M
19 °C 10 km+ 2.900 ft 240°   240° 13 kt METAR LFQQ 161100Z AUTO 24013KT 9999 BKN029 BKN034 19/12 Q1018 NOSIG
12:30
V
20 °C 10 km+ 3.000 ft 240°   240° 14 kt METAR LFQQ 161030Z AUTO 24014KT 9999 BKN030 BKN037 BKN043 20/13 Q1017 NOSIG
12:00
M
20 °C 10 km+ 2.700 ft 230°   230° 14 kt METAR LFQQ 161000Z AUTO 23014KT 9999 BKN027 BKN032 20/13 Q1017 NOSIG
11:30
V
20 °C 10 km+ 3.100 ft 250°   250° 14 kt METAR LFQQ 160930Z AUTO 25014KT 9999 SCT025 OVC031 20/13 Q1017 NOSIG
11:00
M
19 °C 10 km+ 2.300 ft 240°   240° 13 kt METAR LFQQ 160900Z AUTO 24013KT 210V270 9999 BKN023 OVC028 19/13 Q1016 NOSIG
10:30
M
19 °C 10 km+ 2.100 ft 250°   250° 12 kt METAR LFQQ 160830Z AUTO 25012KT 9999 BKN021 BKN026 BKN120 19/14 Q1016 NOSIG
10:00
M
19 °C 10 km+ 2.200 ft 260°   260° 14 kt METAR LFQQ 160800Z AUTO 26014KT 9999 BKN022 BKN110 BKN160 19/14 Q1015 NOSIG
09:30
M
19 °C 10 km+ 2.200 ft 240°   240° 11 kt METAR LFQQ 160730Z AUTO 24011KT 210V270 9999 BKN022 19/14 Q1015 NOSIG
09:00
M
19 °C 10 km+ 2.000 ft 240°   240° 12 kt METAR LFQQ 160700Z AUTO 24012KT 9999 BKN020 19/15 Q1014 NOSIG
08:30
M
20 °C 10 km+ 2.300 ft 250°   250° 12 kt METAR LFQQ 160630Z AUTO 25012KT 230V290 9999 BKN023/// BKN062/// ///CB 20/14 Q1014 BECMG BKN020
08:00
V
19 °C 10 km+ - 220°   220° 8 kt METAR LFQQ 160600Z AUTO 22008KT 190V250 9999 VCTS ///CB 19/14 Q1013 BECMG NSW BKN020
07:30
V
19 °C 10 km+ - 200°   200° 4 kt METAR LFQQ 160530Z AUTO 20004KT 170V230 CAVOK 19/14 Q1013 BECMG BKN012
07:00
V
18 °C 10 km+ - 180°   180° 5 kt METAR LFQQ 160500Z AUTO 18005KT CAVOK 18/13 Q1012 BECMG 25013KT BKN012
06:30
V
17 °C 10 km+ - 140°   140° 4 kt METAR LFQQ 160430Z AUTO 14004KT CAVOK 17/13 Q1012 BECMG 25013KT BKN012
06:00
V
18 °C 10 km+ - 150°   150° 5 kt METAR LFQQ 160400Z AUTO 15005KT 120V180 CAVOK 18/13 Q1012 TEMPO 4000 SHRA BKN040TCU BECMG 25013KT
05:30
V
18 °C 10 km+ - 160°   160° 5 kt METAR LFQQ 160330Z AUTO 16005KT CAVOK 18/13 Q1011 TEMPO 4000 SHRA BKN040TCU BECMG 25013KT
05:00
V
18 °C 10 km+ - 150°   150° 5 kt METAR LFQQ 160300Z AUTO 15005KT CAVOK 18/13 Q1011 TEMPO 4000 SHRA BKN040TCU
04:30
V
18 °C 10 km+ - 160°   160° 4 kt METAR LFQQ 160230Z AUTO 16004KT 120V200 CAVOK 18/13 Q1011 TEMPO 4000 SHRA BKN040TCU
04:00
V
18 °C 10 km+ - 120°   120° 4 kt METAR LFQQ 160200Z AUTO 12004KT CAVOK 18/13 Q1011 TEMPO 4000 SHRA BKN040TCU
03:30
V
19 °C 10 km+ - 120°   120° 5 kt METAR LFQQ 160130Z AUTO 12005KT CAVOK 19/12 Q1012 TEMPO 4000 SHRA BKN040TCU
03:00
V
19 °C 10 km+ - 200°   200° 4 kt METAR LFQQ 160100Z AUTO 20004KT CAVOK 19/12 Q1012 TEMPO 4000 SHRA BKN040TCU BECMG 11010KT
02:30
V
19 °C 10 km+ - 160°   160° 3 kt METAR LFQQ 160030Z AUTO 16003KT CAVOK 19/12 Q1012 TEMPO 4000 SHRA BKN040TCU
02:00
V
19 °C 10 km+ - 150°   150° 4 kt METAR LFQQ 160000Z AUTO 15004KT CAVOK 19/11 Q1012 NOSIG
01:30
V
20 °C 10 km+ - Var   Var 2 kt METAR LFQQ 152330Z AUTO VRB02KT CAVOK 20/11 Q1012 NOSIG
01:00
V
20 °C 10 km+ - 130°   130° 1 kt METAR LFQQ 152300Z AUTO 13001KT CAVOK 20/10 Q1012 NOSIG
00:30
V
21 °C 10 km+ - 240°   240° 3 kt METAR LFQQ 152230Z AUTO 24003KT 230V290 CAVOK 21/10 Q1012 BECMG 11010KT
00:00
V
22 °C 10 km+ - 200°   200° 8 kt METAR LFQQ 152200Z AUTO 20008KT CAVOK 22/10 Q1013 BECMG 11010KT

15 mai 2022

Temps Code Temps Temp. Vue Des nuages Vent METAR/SPECI
23:30
V
21 °C 10 km+ - 070°   070° 5 kt METAR LFQQ 152130Z AUTO 07005KT CAVOK 21/09 Q1012 NOSIG
23:00
V
21 °C 10 km+ - 090°   090° 4 kt METAR LFQQ 152100Z AUTO 09004KT CAVOK 21/08 Q1012 TEMPO 29015G25KT 4000 SHRA BKN080CB
22:30
V
23 °C 10 km+ - 070°   070° 8 kt METAR LFQQ 152030Z AUTO 07008KT CAVOK 23/08 Q1012 TEMPO 29015G25KT 4000 SHRA BKN080CB
22:00
V
23 °C 10 km+ - 070°   070° 7 kt METAR LFQQ 152000Z AUTO 07007KT CAVOK 23/08 Q1012 TEMPO 29015G25KT 4000 SHRA BKN080CB
21:30
V
24 °C 10 km+ - 070°   070° 6 kt METAR LFQQ 151930Z AUTO 07006KT CAVOK 24/08 Q1012 TEMPO 29015G25KT 4000 SHRA BKN080CB
21:00
V
24 °C 10 km+ - 070°   070° 7 kt METAR LFQQ 151900Z AUTO 07007KT CAVOK 24/08 Q1012 TEMPO 29015G25KT 4000 SHRA BKN080CB
20:30
V
25 °C 10 km+ - 090°   090° 7 kt METAR LFQQ 151830Z AUTO 09007KT CAVOK 25/08 Q1012 TEMPO 29015G25KT 4000 SHRA BKN080CB
20:00
V
27 °C 10 km+ - 090°   090° 8 kt METAR LFQQ 151800Z AUTO 09008KT CAVOK 27/08 Q1011 NOSIG
19:30
V
27 °C 10 km+ - 100°   100° 11 kt METAR LFQQ 151730Z AUTO 10011KT CAVOK 27/08 Q1011 NOSIG
19:00
V
28 °C 10 km+ - 100°   100° 11 kt METAR LFQQ 151700Z AUTO 10011KT 070V130 CAVOK 28/07 Q1012 TEMPO 3000 SHRA BKN060TCU
18:30
V
28 °C 10 km+ - 100°   100° 11 kt METAR LFQQ 151630Z AUTO 10011KT CAVOK 28/06 Q1012 TEMPO 3000 SHRA BKN060TCU
18:00
V
28 °C 10 km+ - 090°   090° 12 kt METAR LFQQ 151600Z AUTO 09012KT 060V120 CAVOK 28/07 Q1012 TEMPO 3000 SHRA BKN060TCU
17:30
V
28 °C 10 km+ - 110°   110° 11 kt METAR LFQQ 151530Z AUTO 11011KT 070V140 CAVOK 28/08 Q1013 TEMPO 3000 SHRA BKN060TCU
17:00
V
28 °C 10 km+ - 090°   090° 12 kt METAR LFQQ 151500Z AUTO 09012KT CAVOK 28/06 Q1013 NOSIG
16:30
V
28 °C 10 km+ - 110°   110° 12 kt METAR LFQQ 151430Z AUTO 11012KT CAVOK 28/06 Q1014 NOSIG
16:00
V
27 °C 10 km+ - 120°   120° 12 kt METAR LFQQ 151400Z AUTO 12012KT 080V170 CAVOK 27/06 Q1014 NOSIG
15:30
V
27 °C 10 km+ - 090°   090° 12 kt METAR LFQQ 151330Z AUTO 09012KT 050V130 CAVOK 27/08 Q1014 NOSIG
15:00
V
27 °C 10 km+ - 120°   120° 12 kt METAR LFQQ 151300Z AUTO 12012KT CAVOK 27/08 Q1015 NOSIG
14:30
V
27 °C 10 km+ - 110°   110° 11 kt METAR LFQQ 151230Z AUTO 11011KT 080V140 CAVOK 27/08 Q1015 NOSIG
14:00
V
26 °C 10 km+ - 110°   110° 10 kt METAR LFQQ 151200Z AUTO 11010KT 070V160 CAVOK 26/08 Q1015 NOSIG
13:30
V
26 °C 10 km+ - 100°   100° 11 kt METAR LFQQ 151130Z AUTO 10011KT 060V140 CAVOK 26/10 Q1016 NOSIG
13:00
V
25 °C 10 km+ - 120°   120° 8 kt METAR LFQQ 151100Z AUTO 12008KT 060V170 CAVOK 25/10 Q1016 NOSIG
12:30
V
24 °C 10 km+ - 090°   090° 10 kt METAR LFQQ 151030Z AUTO 09010KT 060V120 CAVOK 24/11 Q1016 NOSIG
12:00
V
23 °C 10 km+ - 110°   110° 7 kt METAR LFQQ 151000Z AUTO 11007KT 080V150 CAVOK 23/11 Q1017 NOSIG
11:30
V
22 °C 10 km+ - 090°   090° 5 kt METAR LFQQ 150930Z AUTO 09005KT 050V130 CAVOK 22/10 Q1017 BECMG 05015KT
11:00
V
21 °C 10 km+ - 110°   110° 5 kt METAR LFQQ 150900Z AUTO 11005KT 060V150 CAVOK 21/11 Q1017 BECMG 05015KT
10:30
V
21 °C 10 km+ - 130°   130° 6 kt METAR LFQQ 150830Z AUTO 13006KT 100V160 CAVOK 21/10 Q1017 NOSIG
10:00
V
20 °C 10 km+ - 080°   080° 6 kt METAR LFQQ 150800Z AUTO 08006KT CAVOK 20/11 Q1017 NOSIG
09:30
V
19 °C 10 km+ - 100°   100° 5 kt METAR LFQQ 150730Z AUTO 10005KT 070V130 CAVOK 19/10 Q1017 BECMG 05015KT
09:00
V
17 °C 10 km+ - 090°   090° 6 kt METAR LFQQ 150700Z AUTO 09006KT 060V120 CAVOK 17/10 Q1018 NOSIG
08:30
V
16 °C 10 km+ - 090°   090° 5 kt METAR LFQQ 150630Z AUTO 09005KT CAVOK 16/10 Q1018 BECMG 05015KT
08:00
V
15 °C 10 km+ - 060°   060° 5 kt METAR LFQQ 150600Z AUTO 06005KT CAVOK 15/10 Q1018 BECMG 05015KT
07:30
V
14 °C 10 km+ - 070°   070° 2 kt METAR LFQQ 150530Z AUTO 07002KT CAVOK 14/10 Q1018 NOSIG
07:00
V
13 °C 10 km+ - 060°   060° 4 kt METAR LFQQ 150500Z AUTO 06004KT CAVOK 13/09 Q1018 NOSIG
06:30
V
13 °C 10 km+ - Var   Var 2 kt METAR LFQQ 150430Z AUTO VRB02KT CAVOK 13/09 Q1018 NOSIG
06:00
V
13 °C 10 km+ - 050°   050° 5 kt METAR LFQQ 150400Z AUTO 05005KT CAVOK 13/09 Q1018 NOSIG
05:30
V
12 °C 10 km+ - 070°   070° 3 kt METAR LFQQ 150330Z AUTO 07003KT CAVOK 12/09 Q1018 NOSIG
05:00
V
13 °C 10 km+ - 050°   050° 5 kt METAR LFQQ 150300Z AUTO 05005KT CAVOK 13/09 Q1018 NOSIG
04:30
V
13 °C 10 km+ - 040°   040° 3 kt METAR LFQQ 150230Z AUTO 04003KT CAVOK 13/09 Q1018 NOSIG
04:00
V
13 °C 10 km+ - 060°   060° 4 kt METAR LFQQ 150200Z AUTO 06004KT CAVOK 13/09 Q1019 NOSIG
03:30
V
13 °C 10 km+ - 070°   070° 5 kt METAR LFQQ 150130Z AUTO 07005KT CAVOK 13/09 Q1019 NOSIG
03:00
V
14 °C 10 km+ - 070°   070° 6 kt METAR LFQQ 150100Z AUTO 07006KT CAVOK 14/09 Q1019 NOSIG
02:30
V
14 °C 10 km+ - 060°   060° 7 kt METAR LFQQ 150030Z AUTO 06007KT CAVOK 14/10 Q1019 NOSIG
02:00
V
14 °C 10 km+ - 040°   040° 6 kt METAR LFQQ 150000Z AUTO 04006KT CAVOK 14/09 Q1019 NOSIG
01:30
V
15 °C 10 km+ - 050°   050° 6 kt METAR LFQQ 142330Z AUTO 05006KT CAVOK 15/10 Q1019 NOSIG
01:00
V
15 °C 10 km+ - 050°   050° 7 kt METAR LFQQ 142300Z AUTO 05007KT CAVOK 15/10 Q1019 NOSIG
00:30
V
15 °C 10 km+ - 040°   040° 8 kt METAR LFQQ 142230Z AUTO 04008KT CAVOK 15/10 Q1019 NOSIG
00:00
V
16 °C 10 km+ - 040°   040° 8 kt METAR LFQQ 142200Z AUTO 04008KT CAVOK 16/10 Q1020 NOSIG

14 mai 2022

Temps Code Temps Temp. Vue Des nuages Vent METAR/SPECI
23:30
V
16 °C 10 km+ - 030°   030° 8 kt METAR LFQQ 142130Z AUTO 03008KT CAVOK 16/09 Q1020 NOSIG
23:00
V
17 °C 10 km+ - 030°   030° 9 kt METAR LFQQ 142100Z AUTO 03009KT CAVOK 17/09 Q1020 NOSIG
22:30
V
17 °C 10 km+ - 020°   020° 9 kt METAR LFQQ 142030Z AUTO 02009KT CAVOK 17/10 Q1020 NOSIG
22:00
V
18 °C 10 km+ - 030°   030° 8 kt METAR LFQQ 142000Z AUTO 03008KT CAVOK 18/10 Q1020 NOSIG
21:30
V
19 °C 10 km+ - 070°   070° 4 kt METAR LFQQ 141930Z AUTO 07004KT CAVOK 19/08 Q1019 NOSIG
21:00
V
20 °C 10 km+ - 110°   110° 4 kt METAR LFQQ 141900Z AUTO 11004KT CAVOK 20/08 Q1019 NOSIG
20:30
V
21 °C 10 km+ - 110°   110° 4 kt METAR LFQQ 141830Z AUTO 11004KT CAVOK 21/08 Q1019 NOSIG
20:00
V
22 °C 10 km+ - 100°   100° 4 kt METAR LFQQ 141800Z AUTO 10004KT 070V130 CAVOK 22/09 Q1019 NOSIG
19:30
V
23 °C 10 km+ - 090°   090° 4 kt METAR LFQQ 141730Z AUTO 09004KT 060V140 CAVOK 23/09 Q1019 NOSIG
19:00
V
23 °C 10 km+ - 080°   080° 3 kt METAR LFQQ 141700Z AUTO 08003KT 030V120 CAVOK 23/08 Q1020 NOSIG
18:30
V
23 °C 10 km+ - 090°   090° 5 kt METAR LFQQ 141630Z AUTO 09005KT 010V110 CAVOK 23/08 Q1020 NOSIG
18:00
V
23 °C 10 km+ - 160°   160° 3 kt METAR LFQQ 141600Z AUTO 16003KT 060V230 CAVOK 23/08 Q1020 NOSIG
17:30
V
23 °C 10 km+ - 120°   120° 4 kt METAR LFQQ 141530Z AUTO 12004KT 050V220 CAVOK 23/09 Q1020 NOSIG
17:00
V
23 °C 10 km+ - Var   Var 3 kt METAR LFQQ 141500Z AUTO VRB03KT CAVOK 23/09 Q1020 NOSIG
16:30
V
23 °C 10 km+ - 120°   120° 5 kt METAR LFQQ 141430Z AUTO 12005KT 070V160 CAVOK 23/09 Q1020 NOSIG
16:00
V
23 °C 10 km+ - Var   Var 3 kt METAR LFQQ 141400Z AUTO VRB03KT CAVOK 23/10 Q1021 NOSIG
Données plus anciennes

Télécharge notre application

Un accès facile à toute la météo aéronautique sur ton téléphone portable et ta tablette.
Avec de nombreuses fonctionnalités non disponibles sur le site Web, comme la prise en charge hors ligne et une liste personnelle d'aéroports.